createdAt,value
2023-11-21T00:02:40.717Z,86.62
2023-11-21T00:05:42.327Z,86.66
2023-11-21T00:08:43.758Z,86.75
2023-11-21T00:11:45.788Z,86.76
2023-11-21T00:14:47.886Z,86.66
2023-11-21T00:17:50.331Z,86.60
2023-11-21T00:20:51.832Z,86.67
2023-11-21T00:23:53.478Z,86.63
2023-11-21T00:26:54.869Z,86.63
2023-11-21T00:29:56.453Z,86.50
2023-11-21T00:32:58.067Z,86.50
2023-11-21T00:35:59.748Z,86.60
2023-11-21T00:39:03.124Z,86.49
2023-11-21T00:42:05.579Z,86.62
2023-11-21T00:45:07.943Z,86.58
2023-11-21T00:48:09.484Z,86.61
2023-11-21T00:51:11.117Z,86.44
2023-11-21T00:54:12.758Z,86.54
2023-11-21T00:57:14.668Z,86.56
2023-11-21T01:00:18.495Z,86.56
2023-11-21T01:03:20.712Z,86.45
2023-11-21T01:06:22.504Z,86.33
2023-11-21T01:09:24.660Z,86.46
2023-11-21T01:12:26.586Z,86.52
2023-11-21T01:15:28.913Z,86.35
2023-11-21T01:18:30.391Z,86.45
2023-11-21T01:21:32.660Z,86.52
2023-11-21T01:24:34.085Z,86.25
2023-11-21T01:27:35.836Z,86.44
2023-11-21T01:30:38.140Z,86.52
2023-11-21T01:33:39.553Z,86.48
2023-11-21T01:36:40.945Z,86.38
2023-11-21T01:39:42.404Z,86.36
2023-11-21T01:42:44.179Z,86.33
2023-11-21T01:45:49.167Z,86.28
2023-11-21T01:48:51.123Z,86.40
2023-11-21T01:51:52.762Z,86.44
2023-11-21T01:54:54.684Z,86.40
2023-11-21T01:57:59.891Z,86.46
2023-11-21T02:01:01.442Z,86.62
2023-11-21T02:04:03.780Z,86.64
2023-11-21T02:07:08.212Z,86.79
2023-11-21T02:10:10.045Z,86.73
2023-11-21T02:13:11.913Z,86.80
2023-11-21T02:16:14.259Z,86.70
2023-11-21T02:19:25.982Z,86.73
2023-11-21T02:22:36.541Z,86.75
2023-11-21T02:25:38.004Z,86.80
2023-11-21T02:28:39.541Z,86.80
2023-11-21T02:31:48.504Z,86.77
2023-11-21T02:34:50.676Z,86.77
2023-11-21T02:37:53.241Z,86.77
2023-11-21T02:40:55.023Z,86.74
2023-11-21T02:43:56.515Z,86.68
2023-11-21T02:46:58.558Z,86.66
2023-11-21T02:50:00.302Z,86.73
2023-11-21T02:53:02.176Z,86.68
2023-11-21T02:56:03.827Z,86.56
2023-11-21T02:59:05.617Z,86.64
2023-11-21T03:02:09.433Z,86.58
2023-11-21T03:05:11.507Z,86.52
2023-11-21T03:08:12.901Z,86.48
2023-11-21T03:11:15.065Z,86.43
2023-11-21T03:14:16.714Z,86.54
2023-11-21T03:17:18.154Z,86.40
2023-11-21T03:20:20.117Z,86.40
2023-11-21T03:23:21.616Z,86.42
2023-11-21T03:26:23.233Z,86.41
2023-11-21T03:29:24.677Z,86.49
2023-11-21T03:32:26.208Z,86.35
2023-11-21T03:35:28.534Z,86.37
2023-11-21T03:38:30.158Z,86.43
2023-11-21T03:41:31.531Z,86.51
2023-11-21T03:44:33.058Z,86.38
2023-11-21T03:47:34.969Z,86.43
2023-11-21T03:50:36.457Z,86.29
2023-11-21T03:53:37.856Z,86.42
2023-11-21T03:56:39.261Z,86.35
2023-11-21T03:59:42.082Z,86.35
2023-11-21T04:02:43.870Z,86.22
2023-11-21T04:05:46.749Z,86.32
2023-11-21T04:08:48.216Z,86.26
2023-11-21T04:11:49.652Z,86.20
2023-11-21T04:14:52.166Z,86.25
2023-11-21T04:17:54.637Z,86.27
2023-11-21T04:20:56.066Z,86.28
2023-11-21T04:23:57.442Z,86.31
2023-11-21T04:26:59.064Z,86.34
2023-11-21T04:30:00.526Z,86.37
2023-11-21T04:33:03.592Z,86.29
2023-11-21T04:36:05.687Z,86.38
2023-11-21T04:39:07.702Z,86.28
2023-11-21T04:42:09.137Z,86.37
2023-11-21T04:45:12.151Z,86.31
2023-11-21T04:48:13.793Z,86.39
2023-11-21T04:51:15.388Z,86.40
2023-11-21T04:54:17.013Z,86.41
2023-11-21T04:57:18.752Z,86.38
2023-11-21T05:00:21.812Z,86.35
2023-11-21T05:03:24.612Z,86.36
2023-11-21T05:06:26.353Z,86.49
2023-11-21T05:09:29.010Z,86.46
2023-11-21T05:12:38.419Z,86.47
2023-11-21T05:15:40.497Z,86.54
2023-11-21T05:18:42.134Z,86.59
2023-11-21T05:21:43.727Z,86.70
2023-11-21T05:24:45.303Z,86.81
2023-11-21T05:27:47.796Z,86.83
2023-11-21T05:30:51.963Z,87.00
2023-11-21T05:33:56.390Z,87.07
2023-11-21T05:36:58.981Z,87.15
2023-11-21T05:40:05.485Z,87.16
2023-11-21T05:43:07.741Z,87.18
2023-11-21T05:46:09.828Z,87.25
2023-11-21T05:49:11.544Z,87.32
2023-11-21T05:52:13.094Z,87.24
2023-11-21T05:55:14.907Z,87.24
2023-11-21T05:58:16.579Z,87.10
2023-11-21T06:01:18.101Z,87.12
2023-11-21T06:04:19.788Z,87.23
2023-11-21T06:07:21.522Z,87.13
2023-11-21T06:10:24.541Z,87.16
2023-11-21T06:13:26.793Z,87.19
2023-11-21T06:16:28.514Z,87.14
2023-11-21T06:19:30.011Z,87.10
2023-11-21T06:22:31.794Z,86.99
2023-11-21T06:25:37.176Z,87.19
2023-11-21T06:28:38.766Z,87.03
2023-11-21T06:31:41.528Z,87.11
2023-11-21T06:34:43.107Z,87.08
2023-11-21T06:37:48.461Z,87.00
2023-11-21T06:40:49.961Z,87.09
2023-11-21T06:43:51.432Z,87.01
2023-11-21T06:46:53.119Z,87.06
2023-11-21T06:49:54.688Z,87.04
2023-11-21T06:52:56.287Z,86.81
2023-11-21T06:55:57.760Z,86.92
2023-11-21T06:58:59.266Z,86.85
2023-11-21T07:02:01.070Z,86.74
2023-11-21T07:05:02.967Z,86.78
2023-11-21T07:08:05.103Z,86.70
2023-11-21T07:11:06.623Z,86.72
2023-11-21T07:14:09.355Z,86.70
2023-11-21T07:17:15.156Z,86.70
2023-11-21T07:20:17.815Z,86.53
2023-11-21T07:23:19.245Z,86.60
2023-11-21T07:26:21.137Z,86.50
2023-11-21T07:29:26.212Z,86.42
2023-11-21T07:32:27.637Z,86.44
2023-11-21T07:35:29.096Z,86.39
2023-11-21T07:38:30.556Z,86.41
2023-11-21T07:41:33.015Z,86.43
2023-11-21T07:44:34.404Z,86.45
2023-11-21T07:47:36.360Z,86.39
2023-11-21T07:50:38.419Z,86.39
2023-11-21T07:53:40.053Z,86.30
2023-11-21T07:56:41.427Z,86.25
2023-11-21T07:59:42.866Z,86.28
2023-11-21T08:02:46.571Z,86.09
2023-11-21T08:05:48.183Z,86.07
2023-11-21T08:08:49.729Z,86.08
2023-11-21T08:11:52.587Z,86.02
2023-11-21T08:14:54.168Z,85.82
2023-11-21T08:17:55.609Z,85.95
2023-11-21T08:20:57.830Z,86.06
2023-11-21T08:23:59.271Z,85.84
2023-11-21T08:27:00.663Z,85.85
2023-11-21T08:30:04.103Z,85.82
2023-11-21T08:33:05.644Z,85.81
2023-11-21T08:36:09.462Z,85.64
2023-11-21T08:39:10.905Z,85.52
2023-11-21T08:42:12.456Z,85.53
2023-11-21T08:45:15.368Z,85.43
2023-11-21T08:48:16.857Z,85.40
2023-11-21T08:51:18.583Z,85.44
2023-11-21T08:54:20.705Z,85.41
2023-11-21T08:57:26.397Z,85.33
2023-11-21T09:00:27.928Z,85.20
2023-11-21T09:03:29.369Z,85.04
2023-11-21T09:06:30.911Z,85.00
2023-11-21T09:09:32.345Z,84.97
2023-11-21T09:12:35.641Z,84.92
2023-11-21T09:15:37.058Z,84.69
2023-11-21T09:18:38.476Z,84.84
2023-11-21T09:21:40.000Z,84.91
2023-11-21T09:24:41.682Z,84.71
2023-11-21T09:27:43.223Z,84.64
2023-11-21T09:30:44.702Z,84.69
2023-11-21T09:33:48.807Z,84.59
2023-11-21T09:36:50.388Z,84.50
2023-11-21T09:39:51.792Z,84.39
2023-11-21T09:42:57.247Z,84.34
2023-11-21T09:46:02.520Z,84.23
2023-11-21T09:49:06.458Z,84.23
2023-11-21T09:52:16.143Z,84.13
2023-11-21T09:55:20.730Z,84.12
2023-11-21T09:58:25.319Z,83.93
2023-11-21T10:01:28.932Z,84.01
2023-11-21T10:04:31.796Z,83.86
2023-11-21T10:07:35.139Z,83.87
2023-11-21T10:10:48.652Z,83.79
2023-11-21T10:13:54.571Z,83.70
2023-11-21T10:16:58.143Z,83.63
2023-11-21T10:20:00.361Z,83.50
2023-11-21T10:23:03.135Z,83.47
2023-11-21T10:26:11.345Z,83.41
2023-11-21T10:29:24.501Z,83.18
2023-11-21T10:32:32.892Z,83.11
2023-11-21T10:35:44.118Z,83.12
2023-11-21T10:38:50.810Z,83.29
2023-11-21T10:41:53.472Z,82.97
2023-11-21T10:44:55.889Z,83.20
2023-11-21T10:47:57.408Z,83.07
2023-11-21T10:50:59.404Z,82.95
2023-11-21T10:54:00.912Z,83.00
2023-11-21T10:57:04.886Z,82.92
2023-11-21T11:00:07.313Z,83.00
2023-11-21T11:03:16.009Z,82.76
2023-11-21T11:06:18.899Z,82.68
2023-11-21T11:09:21.176Z,82.78
2023-11-21T11:12:25.670Z,82.81
2023-11-21T11:15:28.576Z,82.77
2023-11-21T11:18:30.874Z,82.85
2023-11-21T11:22:05.027Z,82.79
2023-11-21T11:25:35.040Z,82.72
2023-11-21T11:28:47.644Z,82.42
2023-11-21T11:32:00.924Z,82.41
2023-11-21T11:35:17.343Z,82.50
2023-11-21T11:38:19.372Z,82.47
2023-11-21T11:41:30.362Z,82.40
2023-11-21T11:44:47.704Z,82.41
2023-11-21T11:47:57.907Z,82.44
2023-11-21T11:51:25.850Z,82.43
2023-11-21T11:54:37.206Z,82.27
2023-11-21T11:57:43.102Z,82.27
2023-11-21T12:00:46.888Z,82.36
2023-11-21T12:04:34.679Z,82.38
2023-11-21T12:08:00.464Z,82.31
2023-11-21T12:11:02.736Z,82.22
2023-11-21T12:14:06.178Z,82.27
2023-11-21T12:17:07.739Z,82.41
2023-11-21T12:20:18.926Z,82.27
2023-11-21T12:23:21.552Z,82.24
2023-11-21T12:26:25.165Z,82.28
2023-11-21T12:29:26.620Z,82.17
2023-11-21T12:32:28.175Z,82.13
2023-11-21T12:35:34.487Z,82.14
2023-11-21T12:38:36.084Z,82.25
2023-11-21T12:41:37.469Z,82.29
2023-11-21T12:44:41.615Z,82.22
2023-11-21T12:47:44.485Z,81.97
2023-11-21T12:50:49.632Z,82.05
2023-11-21T12:53:51.558Z,82.18
2023-11-21T12:56:52.969Z,82.13
2023-11-21T12:59:58.763Z,82.08
2023-11-21T13:03:00.769Z,82.13
2023-11-21T13:06:03.045Z,82.15
2023-11-21T13:09:05.613Z,82.09
2023-11-21T13:12:09.224Z,81.89
2023-11-21T13:15:11.393Z,81.90
2023-11-21T13:18:13.644Z,81.91
2023-11-21T13:21:16.101Z,82.01
2023-11-21T13:24:18.710Z,81.88
2023-11-21T13:27:20.207Z,81.74
2023-11-21T13:30:27.276Z,81.81
2023-11-21T13:33:29.172Z,81.74
2023-11-21T13:36:33.880Z,81.69
2023-11-21T13:39:36.231Z,81.83
2023-11-21T13:42:37.813Z,81.85
2023-11-21T13:45:45.905Z,81.88
2023-11-21T13:48:51.301Z,81.88
2023-11-21T13:51:55.612Z,81.93
2023-11-21T13:54:57.083Z,81.94
2023-11-21T13:57:59.686Z,81.92
2023-11-21T14:01:02.405Z,81.77
2023-11-21T14:04:16.470Z,81.73
2023-11-21T14:07:23.288Z,81.66
2023-11-21T14:10:25.137Z,81.69
2023-11-21T14:13:29.227Z,81.69
2023-11-21T14:16:30.851Z,81.70
2023-11-21T14:19:33.158Z,81.66
2023-11-21T14:22:35.017Z,81.59
2023-11-21T14:25:37.939Z,81.52
2023-11-21T14:28:39.951Z,81.58
2023-11-21T14:31:42.227Z,81.61
2023-11-21T14:34:47.591Z,81.50
2023-11-21T14:37:49.076Z,81.46
2023-11-21T14:40:50.752Z,81.49
2023-11-21T14:43:52.891Z,81.57
2023-11-21T14:46:57.106Z,81.57
2023-11-21T14:50:19.615Z,81.56
2023-11-21T14:53:41.082Z,81.45
2023-11-21T14:56:45.453Z,81.41
2023-11-21T14:59:58.508Z,81.35
2023-11-21T15:03:00.965Z,81.33
2023-11-21T15:06:24.843Z,81.24
2023-11-21T15:09:32.392Z,81.28
2023-11-21T15:12:34.695Z,81.14
2023-11-21T15:15:37.735Z,81.13
2023-11-21T15:18:39.514Z,81.01
2023-11-21T15:21:40.977Z,80.98
2023-11-21T15:24:45.336Z,80.98
2023-11-21T15:27:49.834Z,80.99
2023-11-21T15:30:52.609Z,81.07
2023-11-21T15:33:54.411Z,81.00
2023-11-21T15:36:56.104Z,81.00
2023-11-21T15:39:58.382Z,81.01
2023-11-21T15:43:00.216Z,81.06
2023-11-21T15:46:07.199Z,81.08
2023-11-21T15:49:13.208Z,81.13
2023-11-21T15:52:14.678Z,81.19
2023-11-21T15:55:17.824Z,81.13
2023-11-21T15:58:19.241Z,81.23
2023-11-21T16:01:22.498Z,81.09
2023-11-21T16:04:27.254Z,81.01
2023-11-21T16:07:28.844Z,81.10
2023-11-21T16:10:32.865Z,81.14
2023-11-21T16:13:41.620Z,81.09
2023-11-21T16:16:43.061Z,80.86
2023-11-21T16:19:44.781Z,80.92
2023-11-21T16:22:46.430Z,80.94
2023-11-21T16:25:55.413Z,80.85
2023-11-21T16:28:57.070Z,80.93
2023-11-21T16:31:58.920Z,80.87
2023-11-21T16:35:01.868Z,80.99
2023-11-21T16:38:05.977Z,81.03
2023-11-21T16:41:10.136Z,80.87
2023-11-21T16:44:16.266Z,80.89
2023-11-21T16:47:25.747Z,80.94
2023-11-21T16:50:27.195Z,80.96
2023-11-21T16:53:28.702Z,80.96
2023-11-21T16:56:30.300Z,80.85
2023-11-21T16:59:32.012Z,81.00
2023-11-21T17:02:37.076Z,80.95
2023-11-21T17:05:38.722Z,80.88
2023-11-21T17:08:40.296Z,80.93
2023-11-21T17:11:41.799Z,80.98
2023-11-21T17:14:44.007Z,80.97
2023-11-21T17:17:45.773Z,80.92
2023-11-21T17:20:47.285Z,80.95
2023-11-21T17:23:49.186Z,81.01
2023-11-21T17:26:50.577Z,80.97
2023-11-21T17:29:53.662Z,80.93
2023-11-21T17:32:57.879Z,80.83
2023-11-21T17:35:59.589Z,80.86
2023-11-21T17:39:01.247Z,80.83
2023-11-21T17:42:03.129Z,80.82
2023-11-21T17:45:05.436Z,80.76
2023-11-21T17:48:07.802Z,80.70
2023-11-21T17:51:09.507Z,80.79
2023-11-21T17:54:11.045Z,80.77
2023-11-21T17:57:12.706Z,80.75
2023-11-21T18:00:14.424Z,80.74
2023-11-21T18:03:29.858Z,80.70
2023-11-21T18:06:33.695Z,80.57
2023-11-21T18:09:35.230Z,80.52
2023-11-21T18:12:45.727Z,80.51
2023-11-21T18:16:02.507Z,80.46
2023-11-21T18:19:04.131Z,80.47
2023-11-21T18:22:06.464Z,80.57
2023-11-21T18:25:08.406Z,80.64
2023-11-21T18:28:10.330Z,80.63
2023-11-21T18:31:12.399Z,80.73
2023-11-21T18:34:13.915Z,80.59
2023-11-21T18:37:15.338Z,80.60
2023-11-21T18:40:17.028Z,80.63
2023-11-21T18:43:18.808Z,80.51
2023-11-21T18:46:20.707Z,80.51
2023-11-21T18:49:22.190Z,80.57
2023-11-21T18:52:27.963Z,80.63
2023-11-21T18:55:30.105Z,80.68
2023-11-21T18:58:35.267Z,80.61
2023-11-21T19:01:37.222Z,80.68
2023-11-21T19:04:38.829Z,80.78
2023-11-21T19:07:40.541Z,80.67
2023-11-21T19:10:42.422Z,80.66
2023-11-21T19:13:44.306Z,80.65
2023-11-21T19:16:46.880Z,80.57
2023-11-21T19:19:48.642Z,80.53
2023-11-21T19:22:50.369Z,80.50
2023-11-21T19:25:51.822Z,80.45
2023-11-21T19:28:53.289Z,80.40
2023-11-21T19:31:55.447Z,80.25
2023-11-21T19:34:57.194Z,80.31
2023-11-21T19:37:58.817Z,80.28
2023-11-21T19:41:00.394Z,80.27
2023-11-21T19:44:02.290Z,80.25
2023-11-21T19:47:04.839Z,80.08
2023-11-21T19:50:10.633Z,80.15
2023-11-21T19:53:12.407Z,80.17
2023-11-21T19:56:14.435Z,80.14
2023-11-21T19:59:17.035Z,80.11
2023-11-21T20:02:18.697Z,80.10
2023-11-21T20:05:20.631Z,80.09
2023-11-21T20:08:22.129Z,80.04
2023-11-21T20:11:24.236Z,79.97
2023-11-21T20:14:26.995Z,80.05
2023-11-21T20:17:32.417Z,80.11
2023-11-21T20:20:34.063Z,80.09
2023-11-21T20:23:37.173Z,80.09
2023-11-21T20:26:42.100Z,80.18
2023-11-21T20:29:44.964Z,80.16
2023-11-21T20:32:46.724Z,80.13
2023-11-21T20:35:49.822Z,80.17
2023-11-21T20:38:52.558Z,80.21
2023-11-21T20:41:54.190Z,80.21
2023-11-21T20:44:56.754Z,80.32
2023-11-21T20:47:59.705Z,80.22
2023-11-21T20:51:01.776Z,80.38
2023-11-21T20:54:05.083Z,80.34
2023-11-21T20:57:10.442Z,80.33
2023-11-21T21:00:15.205Z,80.29
2023-11-21T21:03:16.769Z,80.29
2023-11-21T21:06:19.687Z,80.27
2023-11-21T21:09:22.274Z,80.30
2023-11-21T21:12:25.193Z,80.09
2023-11-21T21:15:26.960Z,80.24
2023-11-21T21:18:29.086Z,80.25
2023-11-21T21:21:32.424Z,80.31
2023-11-21T21:24:34.032Z,80.25
2023-11-21T21:27:37.037Z,80.46
2023-11-21T21:30:40.336Z,80.38
2023-11-21T21:33:44.168Z,80.45
2023-11-21T21:36:49.234Z,80.30
2023-11-21T21:39:50.765Z,80.30
2023-11-21T21:42:53.974Z,80.19
2023-11-21T21:45:55.354Z,80.22
2023-11-21T21:48:56.919Z,80.20
2023-11-21T21:52:02.756Z,80.26
2023-11-21T21:55:05.188Z,80.16
2023-11-21T21:58:08.034Z,80.20
2023-11-21T22:01:09.870Z,80.11
2023-11-21T22:04:12.110Z,80.10
2023-11-21T22:07:13.794Z,80.18
2023-11-21T22:10:15.355Z,80.16
2023-11-21T22:13:17.012Z,80.07
2023-11-21T22:16:18.661Z,80.11
2023-11-21T22:19:20.351Z,80.14
2023-11-21T22:22:22.844Z,80.05
2023-11-21T22:25:24.501Z,80.04
2023-11-21T22:28:25.985Z,80.11
2023-11-21T22:31:27.572Z,80.15
2023-11-21T22:34:29.113Z,80.03
2023-11-21T22:37:30.669Z,79.92
2023-11-21T22:40:32.147Z,79.98
2023-11-21T22:43:34.324Z,79.94
2023-11-21T22:46:45.050Z,79.86
2023-11-21T22:49:46.588Z,79.86
2023-11-21T22:52:50.055Z,79.72
2023-11-21T22:55:54.133Z,79.83
2023-11-21T22:58:56.755Z,79.78
2023-11-21T23:01:58.440Z,79.75
2023-11-21T23:05:00.002Z,79.75
2023-11-21T23:08:02.608Z,79.79
2023-11-21T23:11:05.315Z,79.67
2023-11-21T23:14:07.015Z,79.64
2023-11-21T23:17:09.008Z,79.52
2023-11-21T23:20:11.288Z,79.44
2023-11-21T23:23:13.926Z,79.43
2023-11-21T23:26:18.486Z,79.39
2023-11-21T23:29:20.174Z,79.48
2023-11-21T23:32:24.992Z,79.37
2023-11-21T23:35:26.697Z,79.27
2023-11-21T23:38:28.261Z,79.26
2023-11-21T23:41:29.988Z,79.30
2023-11-21T23:44:31.903Z,79.36
2023-11-21T23:47:33.833Z,79.33
2023-11-21T23:50:35.602Z,79.33
2023-11-21T23:53:37.294Z,79.35
2023-11-21T23:56:38.870Z,79.36
2023-11-21T23:59:40.467Z,79.29
